createdAt,value
2019-03-12T00:00:15.320Z,1.94
2019-03-12T00:01:25.995Z,1.93
2019-03-12T00:02:36.673Z,1.94
2019-03-12T00:03:47.350Z,1.94
2019-03-12T00:04:58.028Z,1.94
2019-03-12T00:06:08.695Z,1.93
2019-03-12T00:07:19.378Z,1.92
2019-03-12T00:08:30.052Z,1.91
2019-03-12T00:09:40.729Z,1.87
2019-03-12T00:10:51.409Z,1.86
2019-03-12T00:12:02.072Z,1.85
2019-03-12T00:13:12.746Z,1.84
2019-03-12T00:14:23.418Z,1.82
2019-03-12T00:15:34.087Z,1.79
2019-03-12T00:16:44.757Z,1.77
2019-03-12T00:17:55.437Z,1.74
2019-03-12T00:19:06.105Z,1.71
2019-03-12T00:20:16.760Z,1.71
2019-03-12T00:21:27.426Z,1.70
2019-03-12T00:22:38.091Z,1.70
2019-03-12T00:23:48.763Z,1.72
2019-03-12T00:24:59.430Z,1.73
2019-03-12T00:26:10.100Z,1.76
2019-03-12T00:27:20.776Z,1.79
2019-03-12T00:28:31.453Z,1.81
2019-03-12T00:29:42.112Z,1.83
2019-03-12T00:30:52.771Z,1.86
2019-03-12T00:32:03.430Z,1.89
2019-03-12T00:33:14.104Z,1.91
2019-03-12T00:34:24.774Z,1.93
2019-03-12T00:35:35.448Z,1.94
2019-03-12T00:36:46.111Z,1.95
2019-03-12T00:37:56.782Z,1.97
2019-03-12T00:39:07.453Z,1.99
2019-03-12T00:40:18.144Z,2.01
2019-03-12T00:41:28.810Z,2.00
2019-03-12T00:42:39.471Z,2.02
2019-03-12T00:43:50.134Z,2.06
2019-03-12T00:45:01.305Z,2.10
2019-03-12T00:46:12.642Z,2.15
2019-03-12T00:47:23.317Z,2.19
2019-03-12T00:48:33.985Z,2.23
2019-03-12T00:49:44.656Z,2.25
2019-03-12T00:50:55.329Z,2.25
2019-03-12T00:52:06.004Z,2.26
2019-03-12T00:53:16.682Z,2.24
2019-03-12T00:54:27.355Z,2.23
2019-03-12T00:55:38.018Z,2.19
2019-03-12T00:56:48.687Z,2.15
2019-03-12T00:57:59.549Z,2.10
2019-03-12T00:59:10.707Z,2.04
2019-03-12T01:00:21.383Z,1.99
2019-03-12T01:01:33.054Z,1.92
2019-03-12T01:02:43.733Z,1.86
2019-03-12T01:03:54.396Z,1.78
2019-03-12T01:05:05.077Z,1.72
2019-03-12T01:06:15.746Z,1.67
2019-03-12T01:07:26.407Z,1.60
2019-03-12T01:08:37.069Z,1.55
2019-03-12T01:09:47.745Z,1.49
2019-03-12T01:10:58.406Z,1.46
2019-03-12T01:12:09.070Z,1.44
2019-03-12T01:13:19.734Z,1.42
2019-03-12T01:14:30.886Z,1.39
2019-03-12T01:15:41.553Z,1.38
2019-03-12T01:16:52.216Z,1.35
2019-03-12T01:18:03.379Z,1.34
2019-03-12T01:19:14.059Z,1.33
2019-03-12T01:20:24.724Z,1.32
2019-03-12T01:21:35.391Z,1.35
2019-03-12T01:22:47.057Z,1.39
2019-03-12T01:23:57.720Z,1.42
2019-03-12T01:25:08.397Z,1.46
2019-03-12T01:26:19.071Z,1.52
2019-03-12T01:27:29.735Z,1.58
2019-03-12T01:28:40.397Z,1.63
2019-03-12T01:29:51.052Z,1.70
2019-03-12T01:31:01.718Z,1.77
2019-03-12T01:32:12.379Z,1.84
2019-03-12T01:33:23.530Z,1.87
2019-03-12T01:34:34.199Z,1.90
2019-03-12T01:35:44.862Z,1.91
2019-03-12T01:36:55.516Z,1.92
2019-03-12T01:38:06.189Z,1.92
2019-03-12T01:39:16.879Z,1.90
2019-03-12T01:40:27.537Z,1.88
2019-03-12T01:41:39.200Z,1.85
2019-03-12T01:42:52.381Z,1.82
2019-03-12T01:44:00.523Z,1.77
2019-03-12T01:45:11.189Z,1.72
2019-03-12T01:46:21.853Z,1.66
2019-03-12T01:47:32.531Z,1.59
2019-03-12T01:48:43.188Z,1.52
2019-03-12T01:49:53.843Z,1.46
2019-03-12T01:51:04.522Z,1.40
2019-03-12T01:52:15.180Z,1.34
2019-03-12T01:53:25.839Z,1.28
2019-03-12T01:54:36.497Z,1.22
2019-03-12T01:55:47.154Z,1.17
2019-03-12T01:56:57.826Z,1.13
2019-03-12T01:58:08.496Z,1.10
2019-03-12T01:59:19.161Z,1.11
2019-03-12T02:00:29.821Z,1.09
2019-03-12T02:01:40.483Z,1.09
2019-03-12T02:02:51.154Z,1.11
2019-03-12T02:04:01.804Z,1.10
2019-03-12T02:05:12.648Z,1.11
2019-03-12T02:06:23.325Z,1.13
2019-03-12T02:07:33.985Z,1.14
2019-03-12T02:08:44.647Z,1.18
2019-03-12T02:09:56.327Z,1.22
2019-03-12T02:11:06.977Z,1.24
2019-03-12T02:12:17.641Z,1.28
2019-03-12T02:13:28.309Z,1.32
2019-03-12T02:14:38.980Z,1.34
2019-03-12T02:15:49.635Z,1.36
2019-03-12T02:17:00.299Z,1.39
2019-03-12T02:18:10.954Z,1.40
2019-03-12T02:19:21.610Z,1.41
2019-03-12T02:20:32.275Z,1.41
2019-03-12T02:21:42.929Z,1.41
2019-03-12T02:22:53.640Z,1.42
2019-03-12T02:24:04.259Z,1.42
2019-03-12T02:25:14.926Z,1.43
2019-03-12T02:26:25.592Z,1.45
2019-03-12T02:27:36.261Z,1.47
2019-03-12T02:28:46.915Z,1.50
2019-03-12T02:29:57.581Z,1.52
2019-03-12T02:31:09.267Z,1.54
2019-03-12T02:32:19.913Z,1.57
2019-03-12T02:33:30.587Z,1.62
2019-03-12T02:34:41.263Z,1.68
2019-03-12T02:35:51.918Z,1.69
2019-03-12T02:37:02.576Z,1.71
2019-03-12T02:38:13.241Z,1.72
2019-03-12T02:39:23.922Z,1.72
2019-03-12T02:40:34.580Z,1.70
2019-03-12T02:41:45.245Z,1.69
2019-03-12T02:42:55.918Z,1.68
2019-03-12T02:44:06.585Z,1.65
2019-03-12T02:45:17.269Z,1.63
2019-03-12T02:46:27.893Z,1.58
2019-03-12T02:47:38.551Z,1.55
2019-03-12T02:48:49.222Z,1.51
2019-03-12T02:49:59.901Z,1.46
2019-03-12T02:51:10.554Z,1.41
2019-03-12T02:52:21.211Z,1.35
2019-03-12T02:53:31.878Z,1.29
2019-03-12T02:54:42.532Z,1.24
2019-03-12T02:55:53.200Z,1.20
2019-03-12T02:57:03.866Z,1.17
2019-03-12T02:58:14.545Z,1.11
2019-03-12T02:59:25.206Z,1.07
2019-03-12T03:00:35.870Z,1.03
2019-03-12T03:01:46.546Z,1.00
2019-03-12T03:02:57.200Z,0.97
2019-03-12T03:04:07.864Z,0.96
2019-03-12T03:05:18.522Z,0.93
2019-03-12T03:06:29.182Z,0.91
2019-03-12T03:07:39.835Z,0.88
2019-03-12T03:08:51.495Z,0.84
2019-03-12T03:10:02.156Z,0.82
2019-03-12T03:11:12.815Z,0.79
2019-03-12T03:12:23.475Z,0.77
2019-03-12T03:13:34.159Z,0.75
2019-03-12T03:14:44.804Z,0.72
2019-03-12T03:15:55.456Z,0.70
2019-03-12T03:17:06.113Z,0.67
2019-03-12T03:18:16.770Z,0.64
2019-03-12T03:19:28.431Z,0.61
2019-03-12T03:20:39.099Z,0.59
2019-03-12T03:21:49.747Z,0.55
2019-03-12T03:23:00.401Z,0.52
2019-03-12T03:24:11.061Z,0.51
2019-03-12T03:25:21.718Z,0.51
2019-03-12T03:26:32.377Z,0.53
2019-03-12T03:27:43.034Z,0.57
2019-03-12T03:28:53.689Z,0.62
2019-03-12T03:30:04.361Z,0.66
2019-03-12T03:31:15.007Z,0.69
2019-03-12T03:32:25.656Z,0.75
2019-03-12T03:33:36.312Z,0.80
2019-03-12T03:34:46.986Z,0.85
2019-03-12T03:35:57.652Z,0.88
2019-03-12T03:37:08.305Z,0.91
2019-03-12T03:38:18.963Z,0.92
2019-03-12T03:39:30.618Z,0.92
2019-03-12T03:40:41.286Z,0.88
2019-03-12T03:41:51.939Z,0.86
2019-03-12T03:43:02.593Z,0.83
2019-03-12T03:44:13.246Z,0.77
2019-03-12T03:45:23.975Z,0.72
2019-03-12T03:46:34.557Z,0.67
2019-03-12T03:47:45.217Z,0.61
2019-03-12T03:48:55.872Z,0.56
2019-03-12T03:50:06.528Z,0.51
2019-03-12T03:51:17.192Z,0.45
2019-03-12T03:52:27.842Z,0.41
2019-03-12T03:53:38.500Z,0.39
2019-03-12T03:54:49.155Z,0.36
2019-03-12T03:55:59.817Z,0.36
2019-03-12T03:57:10.618Z,0.36
2019-03-12T03:58:21.580Z,0.38
2019-03-12T03:59:32.236Z,0.41
2019-03-12T04:00:42.894Z,0.44
2019-03-12T04:01:53.851Z,0.49
2019-03-12T04:03:04.504Z,0.55
2019-03-12T04:04:15.150Z,0.62
2019-03-12T04:05:26.129Z,0.66
2019-03-12T04:06:36.782Z,0.69
2019-03-12T04:07:47.425Z,0.71
2019-03-12T04:08:58.068Z,0.72
2019-03-12T04:10:08.727Z,0.73
2019-03-12T04:11:19.392Z,0.72
2019-03-12T04:12:30.037Z,0.72
2019-03-12T04:13:40.692Z,0.71
2019-03-12T04:14:51.350Z,0.69
2019-03-12T04:16:02.049Z,0.67
2019-03-12T04:17:12.659Z,0.66
2019-03-12T04:18:23.317Z,0.66
2019-03-12T04:19:33.974Z,0.67
2019-03-12T04:20:44.628Z,0.67
2019-03-12T04:21:55.275Z,0.70
2019-03-12T04:23:05.930Z,0.72
2019-03-12T04:24:16.579Z,0.73
2019-03-12T04:25:27.223Z,0.76
2019-03-12T04:26:37.877Z,0.75
2019-03-12T04:27:48.519Z,0.77
2019-03-12T04:28:59.197Z,0.78
2019-03-12T04:30:09.850Z,0.80
2019-03-12T04:31:20.485Z,0.80
2019-03-12T04:32:31.145Z,0.81
2019-03-12T04:33:41.797Z,0.82
2019-03-12T04:34:52.441Z,0.82
2019-03-12T04:36:04.093Z,0.83
2019-03-12T04:37:14.766Z,0.84
2019-03-12T04:38:26.408Z,0.86
2019-03-12T04:39:37.053Z,0.85
2019-03-12T04:40:47.695Z,0.87
2019-03-12T04:41:58.363Z,0.87
2019-03-12T04:43:09.007Z,0.88
2019-03-12T04:44:19.674Z,0.91
2019-03-12T04:45:30.316Z,0.90
2019-03-12T04:46:40.969Z,0.91
2019-03-12T04:47:51.627Z,0.93
2019-03-12T04:49:02.271Z,0.93
2019-03-12T04:50:12.914Z,0.94
2019-03-12T04:51:23.557Z,0.95
2019-03-12T04:52:34.217Z,0.95
2019-03-12T04:53:44.869Z,0.95
2019-03-12T04:54:55.524Z,0.95
2019-03-12T04:56:06.182Z,0.97
2019-03-12T04:57:16.837Z,0.99
2019-03-12T04:58:28.628Z,0.99
2019-03-12T04:59:39.282Z,1.01
2019-03-12T05:00:49.937Z,1.02
2019-03-12T05:02:00.597Z,1.04
2019-03-12T05:03:11.247Z,1.04
2019-03-12T05:04:21.904Z,1.03
2019-03-12T05:05:32.558Z,1.04
2019-03-12T05:06:43.217Z,1.03
2019-03-12T05:07:53.873Z,1.03
2019-03-12T05:09:04.529Z,1.03
2019-03-12T05:10:15.180Z,1.03
2019-03-12T05:11:25.824Z,1.05
2019-03-12T05:12:36.653Z,1.05
2019-03-12T05:13:47.305Z,1.05
2019-03-12T05:14:57.951Z,1.05
2019-03-12T05:16:08.596Z,1.03
2019-03-12T05:17:19.247Z,1.02
2019-03-12T05:18:29.902Z,1.01
2019-03-12T05:19:40.553Z,1.00
2019-03-12T05:20:51.207Z,0.97
2019-03-12T05:22:01.860Z,0.95
2019-03-12T05:23:12.517Z,0.93
2019-03-12T05:24:23.171Z,0.89
2019-03-12T05:25:33.823Z,0.87
2019-03-12T05:26:44.635Z,0.84
2019-03-12T05:27:55.283Z,0.81
2019-03-12T05:29:05.936Z,0.78
2019-03-12T05:30:16.581Z,0.76
2019-03-12T05:31:27.230Z,0.75
2019-03-12T05:32:37.882Z,0.74
2019-03-12T05:33:48.537Z,0.72
2019-03-12T05:34:59.188Z,0.71
2019-03-12T05:36:09.842Z,0.71
2019-03-12T05:37:20.644Z,0.71
2019-03-12T05:38:31.792Z,0.72
2019-03-12T05:39:42.448Z,0.75
2019-03-12T05:40:53.087Z,0.76
2019-03-12T05:42:03.740Z,0.79
2019-03-12T05:43:14.397Z,0.82
2019-03-12T05:44:25.059Z,0.86
2019-03-12T05:45:35.702Z,0.92
2019-03-12T05:46:46.349Z,0.93
2019-03-12T05:47:56.992Z,0.95
2019-03-12T05:49:07.646Z,0.98
2019-03-12T05:50:18.289Z,1.02
2019-03-12T05:51:28.939Z,1.05
2019-03-12T05:52:39.594Z,1.07
2019-03-12T05:53:50.242Z,1.09
2019-03-12T05:55:00.901Z,1.12
2019-03-12T05:56:11.557Z,1.14
2019-03-12T05:57:22.201Z,1.16
2019-03-12T05:58:32.855Z,1.18
2019-03-12T05:59:43.508Z,1.21
2019-03-12T06:00:54.153Z,1.23
2019-03-12T06:02:04.812Z,1.25
2019-03-12T06:03:15.464Z,1.28
2019-03-12T06:04:26.129Z,1.30
2019-03-12T06:05:36.792Z,1.33
2019-03-12T06:06:47.445Z,1.34
2019-03-12T06:07:58.100Z,1.37
2019-03-12T06:09:08.754Z,1.41
2019-03-12T06:10:19.418Z,1.45
2019-03-12T06:11:30.058Z,1.50
2019-03-12T06:12:40.734Z,1.54
2019-03-12T06:13:51.378Z,1.60
2019-03-12T06:15:02.044Z,1.64
2019-03-12T06:16:12.705Z,1.69
2019-03-12T06:17:23.362Z,1.74
2019-03-12T06:18:34.018Z,1.79
2019-03-12T06:19:44.678Z,1.82
2019-03-12T06:20:55.347Z,1.87
2019-03-12T06:22:05.999Z,1.89
2019-03-12T06:23:16.758Z,1.91
2019-03-12T06:24:28.802Z,1.93
2019-03-12T06:25:39.955Z,1.96
2019-03-12T06:26:50.612Z,1.99
2019-03-12T06:28:01.268Z,2.01
2019-03-12T06:29:11.926Z,2.02
2019-03-12T06:30:25.746Z,2.03
2019-03-12T06:31:33.278Z,2.04
2019-03-12T06:32:43.943Z,2.04
2019-03-12T06:33:54.609Z,2.04
2019-03-12T06:35:05.267Z,2.03
2019-03-12T06:36:15.947Z,2.03
2019-03-12T06:37:26.621Z,2.01
2019-03-12T06:38:37.282Z,1.99
2019-03-12T06:39:47.944Z,1.98
2019-03-12T06:40:58.634Z,1.95
2019-03-12T06:42:09.302Z,1.94
2019-03-12T06:43:19.966Z,1.93
2019-03-12T06:44:30.633Z,1.94
2019-03-12T06:45:41.304Z,1.94
2019-03-12T06:46:51.968Z,1.95
2019-03-12T06:48:02.631Z,1.96
2019-03-12T06:49:13.298Z,1.96
2019-03-12T06:50:23.960Z,1.99
2019-03-12T06:51:35.121Z,2.03
2019-03-12T06:52:45.794Z,2.06
2019-03-12T06:53:56.621Z,2.11
2019-03-12T06:55:07.282Z,2.17
2019-03-12T06:56:17.962Z,2.23
2019-03-12T06:57:28.645Z,2.29
2019-03-12T06:58:39.314Z,2.35
2019-03-12T06:59:50.990Z,2.38
2019-03-12T07:01:02.667Z,2.40
2019-03-12T07:02:13.349Z,2.41
2019-03-12T07:03:24.030Z,2.41
2019-03-12T07:04:34.707Z,2.41
2019-03-12T07:05:45.358Z,2.43
2019-03-12T07:06:56.059Z,2.45
2019-03-12T07:08:06.714Z,2.47
2019-03-12T07:09:17.390Z,2.50
2019-03-12T07:10:28.070Z,2.50
2019-03-12T07:11:38.755Z,2.51
2019-03-12T07:12:49.908Z,2.53
2019-03-12T07:14:01.581Z,2.55
2019-03-12T07:15:12.249Z,2.56
2019-03-12T07:16:22.919Z,2.58
2019-03-12T07:17:33.605Z,2.61
2019-03-12T07:18:45.283Z,2.62
2019-03-12T07:19:55.986Z,2.64
2019-03-12T07:21:06.654Z,2.68
2019-03-12T07:22:17.336Z,2.72
2019-03-12T07:23:28.016Z,2.76
2019-03-12T07:24:38.699Z,2.80
2019-03-12T07:25:50.784Z,2.86
2019-03-12T07:27:00.041Z,2.91
2019-03-12T07:28:10.727Z,2.99
2019-03-12T07:29:21.402Z,3.05
2019-03-12T07:30:32.078Z,3.14
2019-03-12T07:31:42.758Z,3.21
2019-03-12T07:32:56.136Z,3.26
2019-03-12T07:34:04.122Z,3.31
2019-03-12T07:35:15.803Z,3.34
2019-03-12T07:36:26.489Z,3.38
2019-03-12T07:37:37.175Z,3.45
2019-03-12T07:38:48.854Z,3.51
2019-03-12T07:39:59.536Z,3.55
2019-03-12T07:41:22.950Z,3.58
2019-03-12T07:42:20.914Z,3.58
2019-03-12T07:43:31.605Z,3.57
2019-03-12T07:44:42.299Z,3.56
2019-03-12T07:45:52.986Z,3.57
2019-03-12T07:47:03.669Z,3.60
2019-03-12T07:48:14.360Z,3.59
2019-03-12T07:49:25.339Z,3.61
2019-03-12T07:50:36.031Z,3.65
2019-03-12T07:51:46.715Z,3.67
2019-03-12T07:52:57.410Z,3.71
2019-03-12T07:54:08.111Z,3.74
2019-03-12T07:55:18.787Z,3.79
2019-03-12T07:56:29.478Z,3.85
2019-03-12T07:57:40.165Z,3.93
2019-03-12T07:58:50.858Z,3.98
2019-03-12T08:00:01.554Z,4.02
2019-03-12T08:01:12.252Z,4.09
2019-03-12T08:02:22.933Z,4.17
2019-03-12T08:03:33.631Z,4.22
2019-03-12T08:04:44.329Z,4.27
2019-03-12T08:05:55.025Z,4.31
2019-03-12T08:07:05.717Z,4.32
2019-03-12T08:08:16.900Z,4.32
2019-03-12T08:09:27.604Z,4.30
2019-03-12T08:10:38.303Z,4.30
2019-03-12T08:11:48.990Z,4.29
2019-03-12T08:12:59.699Z,4.28
2019-03-12T08:14:10.399Z,4.28
2019-03-12T08:15:23.314Z,4.29
2019-03-12T08:16:32.785Z,4.29
2019-03-12T08:17:43.484Z,4.30
2019-03-12T08:18:54.184Z,4.32
2019-03-12T08:20:04.880Z,4.34
2019-03-12T08:21:22.253Z,4.37
2019-03-12T08:22:26.280Z,4.40
2019-03-12T08:23:36.995Z,4.43
2019-03-12T08:24:47.704Z,4.46
2019-03-12T08:25:58.425Z,4.49
2019-03-12T08:27:09.119Z,4.52
2019-03-12T08:28:19.835Z,4.57
2019-03-12T08:29:30.542Z,4.61
2019-03-12T08:30:41.235Z,4.64
2019-03-12T08:31:51.935Z,4.64
2019-03-12T08:33:02.641Z,4.66
2019-03-12T08:34:13.836Z,4.70
2019-03-12T08:35:24.542Z,4.71
2019-03-12T08:36:35.239Z,4.74
2019-03-12T08:37:45.950Z,4.77
2019-03-12T08:38:57.650Z,4.84
2019-03-12T08:40:08.368Z,4.91
2019-03-12T08:41:19.080Z,4.96
2019-03-12T08:42:30.276Z,5.02
2019-03-12T08:43:40.983Z,5.10
2019-03-12T08:44:51.696Z,5.18
2019-03-12T08:46:02.423Z,5.25
2019-03-12T08:47:13.620Z,5.31
2019-03-12T08:48:24.330Z,5.41
2019-03-12T08:49:35.065Z,5.56
2019-03-12T08:50:45.766Z,5.73
2019-03-12T08:51:56.484Z,5.89
2019-03-12T08:53:07.195Z,6.01
2019-03-12T08:54:17.981Z,6.17
2019-03-12T08:55:28.642Z,6.38
2019-03-12T08:56:39.368Z,6.55
2019-03-12T08:57:50.089Z,6.69
2019-03-12T08:59:00.814Z,6.80
2019-03-12T09:00:11.548Z,6.90
2019-03-12T09:01:22.280Z,7.01
2019-03-12T09:02:33.016Z,7.07
2019-03-12T09:03:43.736Z,7.21
2019-03-12T09:04:54.979Z,7.38
2019-03-12T09:06:05.749Z,7.61
2019-03-12T09:07:16.645Z,7.88
2019-03-12T09:08:27.381Z,8.17
2019-03-12T09:09:38.130Z,8.45
2019-03-12T09:10:48.890Z,8.71
2019-03-12T09:11:59.639Z,9.03
2019-03-12T09:13:10.396Z,9.26
2019-03-12T09:14:21.154Z,9.49
2019-03-12T09:15:31.928Z,9.72
2019-03-12T09:16:42.692Z,9.78
2019-03-12T09:17:53.958Z,9.79
2019-03-12T09:19:04.728Z,9.82
2019-03-12T09:20:15.505Z,9.80
2019-03-12T09:21:26.299Z,9.87
2019-03-12T09:22:37.086Z,9.94
2019-03-12T09:23:47.869Z,10.12
2019-03-12T09:24:58.660Z,10.27
2019-03-12T09:26:09.463Z,10.32
2019-03-12T09:27:20.263Z,10.27
2019-03-12T09:28:31.066Z,10.20
2019-03-12T09:29:41.870Z,10.22
2019-03-12T09:30:52.683Z,10.25
2019-03-12T09:32:03.493Z,10.27
2019-03-12T09:33:14.303Z,10.35
2019-03-12T09:34:25.111Z,10.42
2019-03-12T09:35:35.929Z,10.45
2019-03-12T09:36:46.745Z,10.43
2019-03-12T09:37:57.562Z,10.40
2019-03-12T09:39:08.868Z,10.36
2019-03-12T09:40:19.683Z,10.49
2019-03-12T09:41:30.506Z,10.68
2019-03-12T09:42:41.828Z,11.03
2019-03-12T09:43:52.645Z,11.52
2019-03-12T09:45:03.487Z,11.82
2019-03-12T09:46:14.329Z,12.26
2019-03-12T09:47:26.157Z,12.91
2019-03-12T09:48:36.987Z,13.94
2019-03-12T09:49:47.835Z,15.63
2019-03-12T09:50:58.689Z,16.49
2019-03-12T09:52:09.550Z,17.13
2019-03-12T09:53:20.413Z,18.29
2019-03-12T09:54:31.282Z,19.95
2019-03-12T09:55:42.676Z,20.98
2019-03-12T09:56:53.589Z,21.37
2019-03-12T09:58:04.498Z,21.90
2019-03-12T09:59:15.426Z,22.36
2019-03-12T10:00:26.369Z,22.75
2019-03-12T10:01:37.328Z,23.26
2019-03-12T10:02:48.293Z,23.84
2019-03-12T10:03:59.275Z,24.29
2019-03-12T10:05:10.271Z,24.68
2019-03-12T10:06:21.287Z,25.19
2019-03-12T10:07:32.312Z,25.93
2019-03-12T10:08:43.341Z,26.82
2019-03-12T10:09:54.393Z,27.93
2019-03-12T10:11:05.461Z,28.78
2019-03-12T10:12:16.542Z,29.87
2019-03-12T10:13:27.644Z,30.52
2019-03-12T10:14:38.753Z,30.72
2019-03-12T10:15:49.883Z,30.73
2019-03-12T10:17:01.014Z,30.32
2019-03-12T10:18:12.197Z,29.43
2019-03-12T10:19:24.768Z,27.61
2019-03-12T10:20:35.903Z,25.60
2019-03-12T10:21:47.043Z,24.02
2019-03-12T10:22:58.170Z,23.84
2019-03-12T10:24:09.792Z,24.69
2019-03-12T10:25:20.916Z,25.11
2019-03-12T10:26:32.046Z,24.64
2019-03-12T10:27:43.184Z,23.63
2019-03-12T10:28:54.304Z,22.84
2019-03-12T10:30:05.430Z,21.62
2019-03-12T10:31:16.664Z,20.15
2019-03-12T10:32:27.764Z,19.70
2019-03-12T10:33:38.855Z,19.81
2019-03-12T10:34:50.432Z,20.31
2019-03-12T10:36:01.570Z,21.64
2019-03-12T10:37:16.245Z,23.82
2019-03-12T10:38:23.708Z,25.76
2019-03-12T10:39:35.800Z,25.90
2019-03-12T10:40:46.909Z,24.52
2019-03-12T10:41:59.496Z,23.86
2019-03-12T10:43:10.595Z,22.46
2019-03-12T10:44:22.686Z,21.91
2019-03-12T10:45:34.770Z,21.26
2019-03-12T10:46:45.849Z,20.61
2019-03-12T10:47:56.937Z,21.74
2019-03-12T10:49:08.618Z,23.78
2019-03-12T10:50:19.708Z,25.77
2019-03-12T10:51:30.824Z,26.85
2019-03-12T10:52:41.943Z,26.86
2019-03-12T10:53:53.072Z,27.08
2019-03-12T10:55:12.827Z,27.43
2019-03-12T10:56:15.851Z,27.29
2019-03-12T10:57:27.293Z,25.85
2019-03-12T10:58:38.446Z,24.10
2019-03-12T10:59:50.649Z,22.60
2019-03-12T11:01:01.802Z,21.15
2019-03-12T11:02:12.926Z,19.80
2019-03-12T11:03:24.059Z,18.77
2019-03-12T11:04:35.180Z,17.92
2019-03-12T11:05:46.535Z,17.18
2019-03-12T11:06:57.396Z,16.52
2019-03-12T11:08:08.978Z,16.04
2019-03-12T11:09:20.058Z,15.72
2019-03-12T11:10:31.130Z,15.39
2019-03-12T11:11:42.201Z,15.24
2019-03-12T11:12:53.259Z,15.13
2019-03-12T11:14:04.426Z,14.96
2019-03-12T11:15:15.474Z,14.78
2019-03-12T11:16:26.522Z,14.65
2019-03-12T11:17:49.002Z,14.52
2019-03-12T11:18:48.610Z,14.40
2019-03-12T11:19:59.655Z,14.45
2019-03-12T11:21:10.687Z,14.75
2019-03-12T11:22:21.707Z,15.03
2019-03-12T11:23:32.740Z,15.19
2019-03-12T11:24:43.770Z,15.46
2019-03-12T11:25:54.787Z,15.81
2019-03-12T11:27:05.815Z,16.03
2019-03-12T11:28:16.834Z,16.11
2019-03-12T11:29:27.864Z,16.01
2019-03-12T11:30:39.382Z,15.72
2019-03-12T11:31:50.902Z,15.38
2019-03-12T11:33:01.930Z,15.12
2019-03-12T11:34:12.937Z,14.89
2019-03-12T11:35:23.948Z,14.64
2019-03-12T11:36:34.957Z,14.38
2019-03-12T11:37:45.987Z,14.12
2019-03-12T11:38:56.973Z,13.86
2019-03-12T11:40:07.992Z,13.73
2019-03-12T11:41:19.136Z,13.62
2019-03-12T11:42:29.971Z,13.52
2019-03-12T11:43:40.977Z,13.42
2019-03-12T11:44:52.136Z,13.32
2019-03-12T11:46:02.941Z,13.21
2019-03-12T11:47:14.923Z,13.15
2019-03-12T11:48:25.920Z,13.15
2019-03-12T11:49:37.392Z,13.15
2019-03-12T11:50:48.367Z,13.14
2019-03-12T11:52:00.336Z,13.02
2019-03-12T11:53:11.332Z,12.95
2019-03-12T11:54:22.303Z,12.84
2019-03-12T11:55:33.273Z,12.72
2019-03-12T11:56:44.706Z,12.71
2019-03-12T11:57:55.673Z,12.80
2019-03-12T11:59:06.643Z,12.94
2019-03-12T12:00:19.439Z,13.04
2019-03-12T12:01:29.561Z,13.12
2019-03-12T12:02:40.526Z,13.16
2019-03-12T12:03:51.484Z,13.15
2019-03-12T12:05:02.441Z,13.11
2019-03-12T12:06:13.444Z,13.04
2019-03-12T12:07:24.350Z,13.02
2019-03-12T12:08:35.307Z,12.98
2019-03-12T12:09:46.273Z,12.90
2019-03-12T12:10:57.215Z,12.86
2019-03-12T12:12:08.676Z,12.81
2019-03-12T12:13:20.113Z,12.78
2019-03-12T12:14:31.634Z,12.78
2019-03-12T12:15:42.587Z,12.80
2019-03-12T12:16:53.537Z,12.80
2019-03-12T12:18:06.005Z,12.76
2019-03-12T12:19:17.451Z,12.74
2019-03-12T12:20:30.366Z,12.68
2019-03-12T12:21:39.348Z,12.59
2019-03-12T12:22:50.297Z,12.49
2019-03-12T12:24:01.234Z,12.43
2019-03-12T12:25:12.187Z,12.39
2019-03-12T12:26:23.136Z,12.32
2019-03-12T12:27:34.077Z,12.19
2019-03-12T12:28:45.013Z,12.08
2019-03-12T12:29:55.957Z,12.01
2019-03-12T12:31:07.380Z,12.02
2019-03-12T12:32:18.314Z,12.07
2019-03-12T12:33:29.239Z,12.16
2019-03-12T12:34:40.679Z,12.24
2019-03-12T12:35:51.609Z,12.32
2019-03-12T12:37:03.039Z,12.46
2019-03-12T12:38:13.972Z,12.56
2019-03-12T12:39:24.915Z,12.60
2019-03-12T12:40:36.344Z,12.70
2019-03-12T12:41:47.275Z,12.86
2019-03-12T12:42:58.211Z,13.03
2019-03-12T12:44:09.661Z,13.18
2019-03-12T12:45:20.602Z,13.26
2019-03-12T12:46:31.541Z,13.29
2019-03-12T12:47:42.627Z,13.40
2019-03-12T12:48:53.579Z,13.58
2019-03-12T12:50:04.509Z,13.72
2019-03-12T12:51:15.462Z,13.87
2019-03-12T12:52:26.421Z,13.96
2019-03-12T12:53:37.869Z,14.08
2019-03-12T12:54:50.316Z,14.34
2019-03-12T12:56:01.282Z,14.60
2019-03-12T12:57:12.263Z,14.66
2019-03-12T12:58:23.209Z,14.58
2019-03-12T12:59:34.180Z,14.45
2019-03-12T13:00:45.642Z,14.30
2019-03-12T13:01:56.614Z,14.17
2019-03-12T13:03:07.590Z,14.02
2019-03-12T13:04:18.564Z,13.87
2019-03-12T13:05:29.546Z,13.68
2019-03-12T13:06:40.507Z,13.51
2019-03-12T13:07:51.475Z,13.36
2019-03-12T13:09:02.426Z,13.30
2019-03-12T13:10:13.386Z,13.30
2019-03-12T13:11:24.350Z,13.31
2019-03-12T13:12:35.307Z,13.36
2019-03-12T13:13:46.266Z,13.40
2019-03-12T13:14:57.217Z,13.38
2019-03-12T13:16:08.175Z,13.28
2019-03-12T13:17:19.128Z,13.14
2019-03-12T13:18:30.621Z,13.03
2019-03-12T13:19:42.112Z,12.88
2019-03-12T13:20:53.508Z,12.78
2019-03-12T13:22:04.462Z,12.74
2019-03-12T13:23:15.911Z,12.63
2019-03-12T13:24:26.855Z,12.62
2019-03-12T13:25:37.801Z,12.68
2019-03-12T13:26:49.749Z,12.77
2019-03-12T13:28:00.697Z,12.90
2019-03-12T13:29:11.632Z,12.98
2019-03-12T13:30:22.581Z,13.01
2019-03-12T13:31:33.528Z,12.95
2019-03-12T13:32:44.632Z,12.76
2019-03-12T13:33:56.071Z,12.57
2019-03-12T13:35:08.004Z,12.45
2019-03-12T13:36:18.952Z,12.32
2019-03-12T13:37:29.899Z,12.29
2019-03-12T13:38:46.609Z,12.35
2019-03-12T13:39:53.292Z,12.51
2019-03-12T13:41:04.265Z,12.80
2019-03-12T13:42:15.125Z,13.17
2019-03-12T13:43:26.060Z,13.62
2019-03-12T13:44:37.077Z,14.28
2019-03-12T13:45:47.971Z,14.97
2019-03-12T13:46:58.954Z,15.39
2019-03-12T13:48:09.914Z,15.59
2019-03-12T13:49:21.080Z,15.60
2019-03-12T13:50:31.851Z,15.44
2019-03-12T13:51:42.843Z,15.15
2019-03-12T13:52:53.821Z,14.85
2019-03-12T13:54:05.823Z,14.62
2019-03-12T13:55:16.816Z,14.37
2019-03-12T13:56:27.800Z,14.14
2019-03-12T13:57:38.688Z,13.91
2019-03-12T13:58:49.646Z,13.73
2019-03-12T14:00:00.601Z,13.61
2019-03-12T14:01:12.049Z,13.56
2019-03-12T14:02:23.013Z,13.67
2019-03-12T14:03:34.004Z,13.94
2019-03-12T14:04:44.970Z,14.29
2019-03-12T14:05:55.942Z,14.54
2019-03-12T14:07:06.918Z,14.70
2019-03-12T14:08:17.908Z,14.88
2019-03-12T14:09:29.878Z,14.93
2019-03-12T14:10:40.856Z,14.85
2019-03-12T14:11:51.833Z,14.72
2019-03-12T14:13:02.819Z,14.65
2019-03-12T14:14:13.794Z,14.56
2019-03-12T14:15:24.770Z,14.58
2019-03-12T14:16:35.764Z,14.69
2019-03-12T14:17:47.247Z,14.74
2019-03-12T14:18:58.230Z,14.77
2019-03-12T14:20:09.214Z,14.66
2019-03-12T14:21:20.184Z,14.54
2019-03-12T14:22:31.172Z,14.35
2019-03-12T14:23:42.633Z,14.20
2019-03-12T14:24:53.611Z,14.07
2019-03-12T14:26:05.088Z,13.94
2019-03-12T14:27:16.077Z,13.91
2019-03-12T14:28:27.050Z,13.89
2019-03-12T14:29:38.517Z,13.93
2019-03-12T14:30:50.625Z,13.99
2019-03-12T14:32:01.608Z,14.09
2019-03-12T14:33:12.575Z,14.18
2019-03-12T14:34:26.726Z,14.33
2019-03-12T14:35:34.512Z,14.59
2019-03-12T14:36:45.479Z,14.96
2019-03-12T14:37:56.634Z,15.38
2019-03-12T14:39:07.606Z,15.70
2019-03-12T14:40:20.077Z,16.02
2019-03-12T14:41:31.060Z,16.31
2019-03-12T14:42:42.060Z,16.62
2019-03-12T14:43:53.061Z,16.94
2019-03-12T14:45:05.060Z,17.12
2019-03-12T14:46:16.071Z,17.02
2019-03-12T14:47:27.077Z,16.90
2019-03-12T14:48:38.092Z,16.69
2019-03-12T14:49:49.108Z,16.24
2019-03-12T14:51:00.113Z,15.87
2019-03-12T14:52:11.116Z,15.56
2019-03-12T14:53:22.311Z,15.33
2019-03-12T14:54:33.128Z,15.03
2019-03-12T14:55:44.113Z,14.89
2019-03-12T14:56:55.106Z,14.85
2019-03-12T14:58:06.101Z,14.76
2019-03-12T14:59:17.198Z,14.72
2019-03-12T15:00:28.064Z,14.65
2019-03-12T15:01:39.042Z,14.55
2019-03-12T15:02:50.019Z,14.34
2019-03-12T15:04:00.997Z,14.17
2019-03-12T15:05:11.971Z,13.94
2019-03-12T15:06:24.427Z,13.65
2019-03-12T15:07:35.391Z,13.44
2019-03-12T15:08:46.360Z,13.28
2019-03-12T15:09:57.311Z,13.05
2019-03-12T15:11:08.247Z,12.80
2019-03-12T15:12:19.187Z,12.70
2019-03-12T15:13:30.143Z,12.84
2019-03-12T15:14:41.574Z,12.90
2019-03-12T15:15:52.510Z,12.69
2019-03-12T15:17:03.434Z,12.66
2019-03-12T15:18:14.353Z,12.56
2019-03-12T15:19:25.298Z,12.30
2019-03-12T15:20:36.700Z,12.02
2019-03-12T15:21:47.613Z,11.87
2019-03-12T15:22:58.516Z,11.77
2019-03-12T15:24:09.432Z,11.60
2019-03-12T15:25:20.838Z,11.45
2019-03-12T15:26:31.737Z,11.32
2019-03-12T15:27:42.626Z,11.22
2019-03-12T15:28:53.544Z,11.09
2019-03-12T15:30:04.446Z,10.97
2019-03-12T15:31:15.837Z,10.86